All
Mount Magnet Airport (Mount Magnet, Western Australia) MMG Weather
|
Mount Magnet, Western Australia (MMG / YMOG)
Clear skies
Light winds |
|
55 °F |
MMG Terminal Area Forecast
| Date | Time (AWST) | Flight Rules | Wind Dir. | Speed | Type | Height AGL (ft) | Visibility | Remarks | ||||||
|---|---|---|---|---|---|---|---|---|---|---|---|---|---|---|
Recent MMG METAR history
| Date | Time (AWST) | Flight Rules | Wind Dir. | Speed | Type | Height AGL (ft) | Visibility | Temp (°C) | Temp (°F) | Dew Point (°C) | Dew Point (°F) | Rel. Humid. | Pressure | Density Altitude | Remarks |
|---|---|---|---|---|---|---|---|---|---|---|---|---|---|---|---|
| 02-May | 10:00PM | VFR | 150° | 6 kt | 10000 meters | 13° | 55° | 3° | 37° | 51% | 1022 mb | 1,092 ft | |||
| 02-May | 09:00PM | VFR | 140° | 6 kt | 10000 meters | 13° | 55° | 3° | 37° | 51% | 1022 mb | 1,092 ft | |||
| 02-May | 08:00PM | VFR | 150° | 5 kt | 10000 meters | 14° | 57° | 2° | 35° | 44% | 1022 mb | 1,212 ft | |||
| 02-May | 07:00PM | VFR | 120° | 4 kt | 10000 meters | 15° | 59° | 1° | 33° | 39% | 1021 mb | 1,361 ft | |||
| 02-May | 06:00PM | VFR | 130° | 7 kt | 10000 meters | 16° | 60° | 0° | 32° | 34% | 1021 mb | 1,481 ft | |||
| 02-May | 05:00PM | VFR | 140° | 9 kt | 10000 meters | 17° | 62° | 1° | 33° | 34% | 1020 mb | 1,631 ft | |||
| 02-May | 04:00PM | VFR | 130° | 11 kt | 10000 meters | 18° | 64° | 0° | 32° | 30% | 1020 mb | 1,751 ft | |||
| 02-May | 03:00PM | VFR | 140° | 9 kt | 10000 meters | 17° | 62° | 0° | 32° | 32% | 1021 mb | 1,601 ft | |||
| 02-May | 02:00PM | VFR | 100° | 8 kt | 10000 meters | 17° | 62° | 1° | 33° | 34% | 1021 mb | 1,601 ft | |||
| 02-May | 01:00PM | VFR | 140° | 10 kt | 10000 meters | 16° | 60° | 0° | 32° | 34% | 1022 mb | 1,452 ft | |||
| 02-May | 12:00PM | VFR | 140° | 9 kt | 10000 meters | 15° | 59° | 1° | 33° | 39% | 1023 mb | 1,302 ft | |||
| 02-May | 11:00AM | VFR | 110° | 9 kt | 10000 meters | 14° | 57° | 1° | 33° | 41% | 1023 mb | 1,182 ft | |||
| 02-May | 10:00AM | VFR | 120° | 13 kt | 10000 meters | 13° | 55° | 1° | 33° | 44% | 1024 mb | 1,033 ft | |||
| 02-May | 09:00AM | VFR | 110° | 13 kt | 10000 meters | 12° | 53° | 2° | 35° | 50% | 1024 mb | 913 ft | |||
| 02-May | 08:00AM | VFR | 120° | 11 kt | 10000 meters | 9° | 48° | 2° | 35° | 61% | 1023 mb | 582 ft | |||
| 02-May | 07:00AM | VFR | 130° | 7 kt | 10000 meters | 7° | 44° | 2° | 35° | 70% | 1023 mb | 342 ft | |||
| 02-May | 06:00AM | VFR | 120° | 4 kt | 10000 meters | 7° | 44° | 2° | 35° | 70% | 1022 mb | 372 ft | |||
| 02-May | 05:00AM | VFR | 140° | 8 kt | 10000 meters | 8° | 46° | 1° | 33° | 61% | 1022 mb | 492 ft | |||
| 02-May | 04:00AM | VFR | 140° | 7 kt | 10000 meters | 8° | 46° | 2° | 35° | 66% | 1022 mb | 492 ft | |||
| 02-May | 03:00AM | VFR | 140° | 6 kt | 10000 meters | 8° | 46° | 2° | 35° | 66% | 1022 mb | 492 ft | |||
| 02-May | 02:00AM | VFR | 140° | 6 kt | 10000 meters | 9° | 48° | 2° | 35° | 61% | 1022 mb | 612 ft | |||
| 02-May | 01:00AM | VFR | 150° | 7 kt | 10000 meters | 10° | 50° | 2° | 35° | 57% | 1022 mb | 732 ft | |||
| 02-May | 12:00AM | VFR | 150° | 7 kt | 10000 meters | 11° | 51° | 2° | 35° | 54% | 1022 mb | 852 ft | |||
| 01-May | 11:00PM | VFR | 150° | 8 kt | 10000 meters | 12° | 53° | 3° | 37° | 54% | 1022 mb | 972 ft |
Login
| Your browser is unsupported. upgrade your browser |
